createdAt,value
2018-07-22T00:00:53.858Z,20.55
2018-07-22T00:03:24.555Z,20.51
2018-07-22T00:05:55.254Z,20.49
2018-07-22T00:08:25.906Z,20.48
2018-07-22T00:10:56.823Z,20.49
2018-07-22T00:13:27.673Z,20.47
2018-07-22T00:15:58.450Z,20.46
2018-07-22T00:18:29.637Z,20.44
2018-07-22T00:21:00.341Z,20.42
2018-07-22T00:23:31.102Z,20.43
2018-07-22T00:26:01.815Z,20.47
2018-07-22T00:28:32.525Z,20.47
2018-07-22T00:31:03.229Z,20.48
2018-07-22T00:33:33.996Z,20.46
2018-07-22T00:36:04.784Z,20.44
2018-07-22T00:38:35.532Z,20.47
2018-07-22T00:41:06.192Z,20.48
2018-07-22T00:43:36.916Z,20.47
2018-07-22T00:46:07.630Z,20.53
2018-07-22T00:48:38.298Z,20.55
2018-07-22T00:51:09.090Z,20.58
2018-07-22T00:53:39.729Z,20.64
2018-07-22T00:56:10.430Z,20.63
2018-07-22T00:58:41.084Z,20.62
2018-07-22T01:01:11.832Z,20.62
2018-07-22T01:03:42.505Z,20.60
2018-07-22T01:06:13.152Z,20.55
2018-07-22T01:08:43.908Z,20.55
2018-07-22T01:11:14.613Z,20.51
2018-07-22T01:13:45.300Z,20.50
2018-07-22T01:16:15.970Z,20.49
2018-07-22T01:18:46.644Z,20.47
2018-07-22T01:21:17.372Z,20.42
2018-07-22T01:23:48.109Z,20.39
2018-07-22T01:26:18.731Z,20.40
2018-07-22T01:28:49.478Z,20.38
2018-07-22T01:31:20.154Z,20.36
2018-07-22T01:33:50.837Z,20.27
2018-07-22T01:36:21.536Z,20.24
2018-07-22T01:38:52.207Z,20.18
2018-07-22T01:41:22.887Z,20.16
2018-07-22T01:43:53.560Z,20.10
2018-07-22T01:46:24.260Z,20.09
2018-07-22T01:48:54.905Z,20.12
2018-07-22T01:51:25.571Z,20.14
2018-07-22T01:53:56.296Z,20.13
2018-07-22T01:56:26.973Z,20.09
2018-07-22T01:58:57.691Z,20.05
2018-07-22T02:01:28.461Z,20.00
2018-07-22T02:03:59.181Z,19.98
2018-07-22T02:06:29.892Z,19.97
2018-07-22T02:09:00.617Z,19.94
2018-07-22T02:11:31.325Z,19.94
2018-07-22T02:14:02.047Z,19.86
2018-07-22T02:16:32.679Z,19.82
2018-07-22T02:19:03.388Z,19.82
2018-07-22T02:21:34.038Z,19.83
2018-07-22T02:24:04.815Z,19.80
2018-07-22T02:26:35.569Z,19.80
2018-07-22T02:29:06.354Z,19.81
2018-07-22T02:31:37.013Z,19.75
2018-07-22T02:34:07.787Z,19.71
2018-07-22T02:36:38.504Z,19.73
2018-07-22T02:39:12.179Z,19.71
2018-07-22T02:41:42.949Z,19.68
2018-07-22T02:44:13.625Z,19.65
2018-07-22T02:46:44.356Z,19.65
2018-07-22T02:49:14.735Z,19.69
2018-07-22T02:51:45.329Z,19.67
2018-07-22T02:54:16.035Z,19.71
2018-07-22T02:56:46.763Z,19.71
2018-07-22T02:59:17.462Z,19.64
2018-07-22T03:01:48.144Z,19.56
2018-07-22T03:04:18.816Z,19.59
2018-07-22T03:06:49.511Z,19.58
2018-07-22T03:09:20.183Z,19.54
2018-07-22T03:11:50.866Z,19.54
2018-07-22T03:14:21.995Z,19.53
2018-07-22T03:16:52.664Z,19.52
2018-07-22T03:19:23.304Z,19.48
2018-07-22T03:21:54.024Z,19.43
2018-07-22T03:24:24.696Z,19.43
2018-07-22T03:26:55.432Z,19.46
2018-07-22T03:29:26.068Z,19.46
2018-07-22T03:31:56.783Z,19.42
2018-07-22T03:34:27.398Z,19.39
2018-07-22T03:36:58.119Z,19.34
2018-07-22T03:39:28.772Z,19.28
2018-07-22T03:41:59.502Z,19.21
2018-07-22T03:44:30.142Z,19.23
2018-07-22T03:47:00.893Z,19.24
2018-07-22T03:49:31.594Z,19.26
2018-07-22T03:52:02.312Z,19.24
2018-07-22T03:54:32.960Z,19.27
2018-07-22T03:57:03.634Z,19.27
2018-07-22T03:59:34.268Z,19.28
2018-07-22T04:02:04.977Z,19.23
2018-07-22T04:04:35.604Z,19.18
2018-07-22T04:07:06.384Z,19.24
2018-07-22T04:09:37.031Z,19.27
2018-07-22T04:12:07.819Z,19.25
2018-07-22T04:14:38.545Z,19.24
2018-07-22T04:17:09.195Z,19.22
2018-07-22T04:19:39.856Z,19.19
2018-07-22T04:22:10.484Z,19.26
2018-07-22T04:24:41.169Z,19.26
2018-07-22T04:27:11.846Z,19.29
2018-07-22T04:29:42.535Z,19.28
2018-07-22T04:32:13.311Z,19.26
2018-07-22T04:34:43.948Z,19.34
2018-07-22T04:37:14.727Z,19.31
2018-07-22T04:39:45.428Z,19.35
2018-07-22T04:42:16.090Z,19.36
2018-07-22T04:44:46.805Z,19.38
2018-07-22T04:47:17.592Z,19.45
2018-07-22T04:49:48.314Z,19.49
2018-07-22T04:52:19.074Z,19.55
2018-07-22T04:54:49.787Z,19.58
2018-07-22T04:57:20.492Z,19.64
2018-07-22T04:59:51.147Z,19.69
2018-07-22T05:02:21.851Z,19.74
2018-07-22T05:04:52.517Z,19.82
2018-07-22T05:07:23.163Z,19.86
2018-07-22T05:09:53.869Z,19.91
2018-07-22T05:12:24.594Z,20.00
2018-07-22T05:14:55.356Z,20.06
2018-07-22T05:17:26.050Z,20.03
2018-07-22T05:19:56.730Z,19.96
2018-07-22T05:22:27.389Z,20.00
2018-07-22T05:24:58.048Z,19.91
2018-07-22T05:27:28.725Z,19.94
2018-07-22T05:29:59.487Z,19.97
2018-07-22T05:32:30.216Z,20.05
2018-07-22T05:35:00.910Z,20.10
2018-07-22T05:37:31.667Z,20.21
2018-07-22T05:40:02.344Z,20.28
2018-07-22T05:42:33.049Z,20.22
2018-07-22T05:45:03.820Z,20.24
2018-07-22T05:47:34.514Z,20.34
2018-07-22T05:50:05.370Z,20.44
2018-07-22T05:52:36.260Z,20.55
2018-07-22T05:55:07.099Z,20.42
2018-07-22T05:57:37.827Z,20.58
2018-07-22T06:00:09.311Z,20.48
2018-07-22T06:02:40.105Z,20.50
2018-07-22T06:05:10.813Z,20.51
2018-07-22T06:07:41.483Z,20.58
2018-07-22T06:10:12.306Z,20.61
2018-07-22T06:12:42.993Z,20.66
2018-07-22T06:15:13.770Z,20.85
2018-07-22T06:17:44.484Z,20.88
2018-07-22T06:20:15.274Z,20.96
2018-07-22T06:22:45.992Z,21.06
2018-07-22T06:25:16.673Z,21.12
2018-07-22T06:27:47.361Z,21.17
2018-07-22T06:30:18.078Z,21.26
2018-07-22T06:32:48.878Z,21.37
2018-07-22T06:35:19.612Z,21.15
2018-07-22T06:37:50.325Z,21.23
2018-07-22T06:40:21.054Z,21.37
2018-07-22T06:42:51.807Z,21.50
2018-07-22T06:45:22.550Z,21.59
2018-07-22T06:47:53.342Z,21.78
2018-07-22T06:50:24.031Z,21.88
2018-07-22T06:52:54.803Z,22.05
2018-07-22T06:55:25.513Z,22.14
2018-07-22T06:57:56.202Z,22.27
2018-07-22T07:00:27.002Z,22.22
2018-07-22T07:02:57.664Z,22.45
2018-07-22T07:05:28.558Z,22.54
2018-07-22T07:07:59.402Z,22.57
2018-07-22T07:10:30.532Z,22.68
2018-07-22T07:13:01.123Z,22.73
2018-07-22T07:15:31.835Z,22.81
2018-07-22T07:18:02.660Z,22.74
2018-07-22T07:20:33.412Z,22.84
2018-07-22T07:23:04.203Z,22.99
2018-07-22T07:25:35.064Z,23.11
2018-07-22T07:28:05.843Z,23.24
2018-07-22T07:30:36.583Z,23.26
2018-07-22T07:33:07.512Z,23.48
2018-07-22T07:35:38.260Z,23.06
2018-07-22T07:38:09.009Z,23.22
2018-07-22T07:40:39.775Z,23.33
2018-07-22T07:43:10.492Z,23.42
2018-07-22T07:45:41.167Z,23.64
2018-07-22T07:48:11.499Z,23.90
2018-07-22T07:50:42.152Z,24.12
2018-07-22T07:53:12.906Z,24.30
2018-07-22T07:55:43.706Z,24.52
2018-07-22T07:58:14.105Z,24.73
2018-07-22T08:00:44.676Z,24.66
2018-07-22T08:03:15.375Z,24.75
2018-07-22T08:05:46.109Z,24.77
2018-07-22T08:08:16.843Z,25.21
2018-07-22T08:10:47.544Z,24.99
2018-07-22T08:13:18.302Z,25.29
2018-07-22T08:15:49.021Z,25.41
2018-07-22T08:18:19.738Z,25.77
2018-07-22T08:20:50.464Z,25.97
2018-07-22T08:23:21.255Z,26.16
2018-07-22T08:25:51.960Z,26.37
2018-07-22T08:28:39.476Z,26.69
2018-07-22T08:31:10.213Z,26.89
2018-07-22T08:33:40.989Z,27.08
2018-07-22T08:36:11.732Z,27.42
2018-07-22T08:38:42.508Z,27.64
2018-07-22T08:41:13.277Z,27.76
2018-07-22T08:43:44.005Z,27.74
2018-07-22T08:46:14.673Z,27.83
2018-07-22T08:48:45.519Z,28.07
2018-07-22T08:51:16.291Z,28.20
2018-07-22T08:53:47.008Z,28.40
2018-07-22T08:56:17.709Z,28.46
2018-07-22T08:58:49.210Z,28.55
2018-07-22T09:01:19.922Z,28.80
2018-07-22T09:03:50.674Z,28.66
2018-07-22T09:06:21.435Z,28.80
2018-07-22T09:08:52.193Z,29.01
2018-07-22T09:11:23.220Z,29.25
2018-07-22T09:13:54.681Z,29.50
2018-07-22T09:16:25.699Z,29.57
2018-07-22T09:18:56.457Z,29.76
2018-07-22T09:21:27.223Z,29.99
2018-07-22T09:23:58.134Z,30.28
2018-07-22T09:26:29.032Z,30.47
2018-07-22T09:28:59.580Z,30.54
2018-07-22T09:31:30.242Z,30.51
2018-07-22T09:34:01.035Z,30.65
2018-07-22T09:36:31.787Z,30.63
2018-07-22T09:39:02.594Z,30.69
2018-07-22T09:41:33.573Z,30.67
2018-07-22T09:44:04.784Z,30.97
2018-07-22T09:46:35.884Z,31.10
2018-07-22T09:49:06.634Z,31.33
2018-07-22T09:51:37.457Z,31.51
2018-07-22T09:54:08.236Z,31.62
2018-07-22T09:56:39.030Z,31.80
2018-07-22T09:59:09.833Z,31.93
2018-07-22T10:01:40.579Z,32.10
2018-07-22T10:04:11.300Z,32.26
2018-07-22T10:06:42.120Z,32.26
2018-07-22T10:09:12.806Z,32.36
2018-07-22T10:11:43.395Z,32.34
2018-07-22T10:14:14.161Z,32.44
2018-07-22T10:16:44.928Z,32.41
2018-07-22T10:19:15.667Z,32.52
2018-07-22T10:21:46.384Z,32.72
2018-07-22T10:24:17.220Z,32.76
2018-07-22T10:26:47.945Z,32.69
2018-07-22T10:29:19.120Z,32.75
2018-07-22T10:31:49.959Z,33.02
2018-07-22T10:34:20.721Z,33.02
2018-07-22T10:36:51.537Z,33.11
2018-07-22T10:39:23.300Z,33.08
2018-07-22T10:41:54.233Z,32.56
2018-07-22T10:44:25.098Z,32.59
2018-07-22T10:46:55.936Z,32.76
2018-07-22T10:49:28.129Z,32.55
2018-07-22T10:51:58.986Z,32.75
2018-07-22T10:54:29.611Z,32.94
2018-07-22T10:57:00.247Z,33.46
2018-07-22T10:59:30.939Z,33.77
2018-07-22T11:02:01.624Z,34.00
2018-07-22T11:04:32.758Z,34.05
2018-07-22T11:07:03.419Z,34.38
2018-07-22T11:09:34.099Z,34.31
2018-07-22T11:12:04.813Z,34.24
2018-07-22T11:14:35.822Z,34.11
2018-07-22T11:17:06.666Z,34.01
2018-07-22T11:19:37.317Z,33.59
2018-07-22T11:22:08.856Z,33.25
2018-07-22T11:24:39.553Z,33.33
2018-07-22T11:27:10.263Z,33.52
2018-07-22T11:29:40.959Z,33.56
2018-07-22T11:32:11.622Z,33.95
2018-07-22T11:34:43.129Z,34.20
2018-07-22T11:37:13.908Z,34.33
2018-07-22T11:39:44.668Z,34.24
2018-07-22T11:42:14.967Z,34.21
2018-07-22T11:44:45.836Z,34.28
2018-07-22T11:47:16.470Z,33.86
2018-07-22T11:49:47.179Z,33.70
2018-07-22T11:52:17.794Z,33.88
2018-07-22T11:54:48.472Z,34.44
2018-07-22T11:57:25.158Z,34.83
2018-07-22T11:59:56.460Z,35.15
2018-07-22T12:02:27.304Z,35.61
2018-07-22T12:05:02.434Z,35.37
2018-07-22T12:07:57.699Z,34.72
2018-07-22T12:13:59.135Z,34.53
2018-07-22T12:16:29.833Z,34.48
2018-07-22T12:19:00.524Z,35.07
2018-07-22T12:21:31.292Z,35.43
2018-07-22T12:24:01.980Z,35.26
2018-07-22T12:26:32.719Z,35.41
2018-07-22T12:29:03.443Z,35.68
2018-07-22T12:31:34.137Z,35.67
2018-07-22T12:34:04.883Z,35.83
2018-07-22T12:36:36.001Z,35.82
2018-07-22T12:39:11.464Z,35.82
2018-07-22T12:41:42.609Z,35.50
2018-07-22T12:44:13.285Z,35.44
2018-07-22T12:46:44.047Z,35.62
2018-07-22T12:49:14.734Z,35.55
2018-07-22T12:51:45.462Z,35.47
2018-07-22T12:54:16.113Z,35.54
2018-07-22T12:56:46.776Z,35.65
2018-07-22T12:59:18.168Z,35.86
2018-07-22T13:01:48.856Z,36.09
2018-07-22T13:04:19.543Z,35.98
2018-07-22T13:06:50.228Z,35.98
2018-07-22T13:09:20.968Z,36.16
2018-07-22T13:11:51.770Z,36.48
2018-07-22T13:14:22.609Z,36.56
2018-07-22T13:16:52.932Z,36.59
2018-07-22T13:19:23.530Z,36.46
2018-07-22T13:21:54.324Z,36.49
2018-07-22T13:24:25.838Z,36.33
2018-07-22T13:26:56.515Z,36.28
2018-07-22T13:29:27.288Z,36.31
2018-07-22T13:31:58.018Z,36.30
2018-07-22T13:34:28.733Z,36.04
2018-07-22T13:36:59.439Z,35.64
2018-07-22T13:39:30.088Z,35.13
2018-07-22T13:42:00.867Z,34.50
2018-07-22T13:44:31.547Z,33.77
2018-07-22T13:47:02.251Z,33.43
2018-07-22T13:49:32.908Z,33.11
2018-07-22T13:52:03.673Z,32.90
2018-07-22T13:54:34.387Z,32.64
2018-07-22T13:57:05.156Z,32.13
2018-07-22T13:59:35.866Z,32.07
2018-07-22T14:02:06.987Z,32.11
2018-07-22T14:04:37.654Z,32.20
2018-07-22T14:07:08.634Z,32.26
2018-07-22T14:09:39.290Z,32.44
2018-07-22T14:12:10.240Z,32.67
2018-07-22T14:14:40.916Z,32.98
2018-07-22T14:17:11.650Z,33.10
2018-07-22T14:19:42.328Z,32.98
2018-07-22T14:22:13.044Z,32.99
2018-07-22T14:24:43.750Z,32.85
2018-07-22T14:27:14.384Z,32.60
2018-07-22T14:29:45.089Z,32.35
2018-07-22T14:32:15.788Z,31.86
2018-07-22T14:34:46.513Z,31.31
2018-07-22T14:37:17.237Z,31.05
2018-07-22T14:39:47.992Z,30.94
2018-07-22T14:42:18.675Z,30.65
2018-07-22T14:44:49.346Z,30.58
2018-07-22T14:47:20.189Z,30.78
2018-07-22T14:49:50.785Z,31.20
2018-07-22T14:52:21.472Z,31.49
2018-07-22T14:54:52.210Z,31.29
2018-07-22T14:57:22.957Z,30.79
2018-07-22T14:59:53.660Z,30.66
2018-07-22T15:02:24.377Z,30.50
2018-07-22T15:04:55.151Z,30.07
2018-07-22T15:07:25.850Z,29.81
2018-07-22T15:09:56.599Z,29.60
2018-07-22T15:12:27.248Z,29.44
2018-07-22T15:14:57.954Z,29.39
2018-07-22T15:17:28.685Z,29.26
2018-07-22T15:19:59.372Z,29.07
2018-07-22T15:22:30.141Z,28.81
2018-07-22T15:25:00.805Z,28.73
2018-07-22T15:27:31.551Z,28.57
2018-07-22T15:30:02.264Z,28.50
2018-07-22T15:32:33.046Z,28.52
2018-07-22T15:35:03.721Z,28.44
2018-07-22T15:37:34.486Z,28.48
2018-07-22T15:40:05.425Z,28.35
2018-07-22T15:42:36.203Z,28.29
2018-07-22T15:45:07.087Z,28.27
2018-07-22T15:47:37.811Z,28.22
2018-07-22T15:50:08.539Z,28.11
2018-07-22T15:52:39.224Z,28.06
2018-07-22T15:55:09.983Z,28.02
2018-07-22T15:57:40.622Z,28.00
2018-07-22T16:00:11.444Z,28.00
2018-07-22T16:02:42.095Z,28.02
2018-07-22T16:05:12.761Z,27.98
2018-07-22T16:07:43.437Z,27.97
2018-07-22T16:10:14.185Z,27.98
2018-07-22T16:12:44.896Z,27.98
2018-07-22T16:15:15.568Z,28.03
2018-07-22T16:17:46.301Z,28.06
2018-07-22T16:20:17.001Z,28.07
2018-07-22T16:22:47.711Z,28.07
2018-07-22T16:25:18.516Z,28.04
2018-07-22T16:27:49.218Z,28.09
2018-07-22T16:30:19.958Z,28.11
2018-07-22T16:32:50.677Z,28.13
2018-07-22T16:35:21.328Z,28.12
2018-07-22T16:37:52.052Z,28.16
2018-07-22T16:40:22.716Z,28.21
2018-07-22T16:42:53.478Z,28.33
2018-07-22T16:45:24.200Z,28.50
2018-07-22T16:47:54.865Z,28.57
2018-07-22T16:50:25.556Z,28.60
2018-07-22T16:52:56.281Z,28.62
2018-07-22T16:55:26.987Z,28.66
2018-07-22T16:57:57.680Z,28.71
2018-07-22T17:00:28.358Z,28.68
2018-07-22T17:02:59.045Z,28.67
2018-07-22T17:05:29.754Z,28.67
2018-07-22T17:08:00.445Z,28.63
2018-07-22T17:10:31.164Z,28.55
2018-07-22T17:13:01.872Z,28.38
2018-07-22T17:15:32.584Z,28.28
2018-07-22T17:18:03.266Z,28.25
2018-07-22T17:20:33.923Z,28.21
2018-07-22T17:23:04.662Z,28.17
2018-07-22T17:25:35.331Z,28.10
2018-07-22T17:28:06.831Z,28.04
2018-07-22T17:30:37.528Z,28.00
2018-07-22T17:33:08.174Z,27.98
2018-07-22T17:35:38.875Z,27.98
2018-07-22T17:38:10.245Z,27.94
2018-07-22T17:40:40.908Z,27.90
2018-07-22T17:43:11.598Z,27.92
2018-07-22T17:45:42.260Z,27.91
2018-07-22T17:48:13.018Z,27.90
2018-07-22T17:50:43.724Z,27.85
2018-07-22T17:53:14.456Z,27.78
2018-07-22T17:55:45.176Z,27.75
2018-07-22T17:58:15.954Z,27.70
2018-07-22T18:00:46.638Z,27.68
2018-07-22T18:03:29.294Z,27.66
2018-07-22T18:06:00.308Z,27.61
2018-07-22T18:08:30.985Z,27.59
2018-07-22T18:11:01.632Z,27.56
2018-07-22T18:13:32.418Z,27.54
2018-07-22T18:16:03.130Z,27.50
2018-07-22T18:18:33.793Z,27.42
2018-07-22T18:21:04.496Z,27.36
2018-07-22T18:23:35.217Z,27.32
2018-07-22T18:26:05.971Z,27.25
2018-07-22T18:28:36.719Z,27.20
2018-07-22T18:31:07.568Z,27.14
2018-07-22T18:33:38.242Z,27.07
2018-07-22T18:36:08.969Z,27.02
2018-07-22T18:38:39.679Z,26.98
2018-07-22T18:41:10.397Z,26.95
2018-07-22T18:43:41.186Z,26.88
2018-07-22T18:46:11.921Z,26.82
2018-07-22T18:48:42.622Z,26.79
2018-07-22T18:51:13.309Z,26.75
2018-07-22T18:53:44.137Z,26.70
2018-07-22T18:56:14.903Z,26.67
2018-07-22T18:58:45.603Z,26.61
2018-07-22T19:01:16.289Z,26.56
2018-07-22T19:03:47.044Z,26.48
2018-07-22T19:06:17.786Z,26.41
2018-07-22T19:11:25.420Z,26.27
2018-07-22T19:13:56.136Z,26.20
2018-07-22T19:16:26.838Z,26.12
2018-07-22T19:18:57.538Z,26.06
2018-07-22T19:21:28.253Z,25.99
2018-07-22T19:23:58.969Z,25.93
2018-07-22T19:26:29.667Z,25.86
2018-07-22T19:29:00.407Z,25.78
2018-07-22T19:31:31.109Z,25.69
2018-07-22T19:34:01.801Z,25.60
2018-07-22T19:36:32.534Z,25.56
2018-07-22T19:39:03.368Z,25.49
2018-07-22T19:41:34.127Z,25.43
2018-07-22T19:44:04.853Z,25.36
2018-07-22T19:46:35.595Z,25.27
2018-07-22T19:49:06.429Z,25.17
2018-07-22T19:51:37.231Z,25.09
2018-07-22T19:54:07.980Z,25.00
2018-07-22T19:56:39.045Z,24.94
2018-07-22T19:59:09.796Z,24.86
2018-07-22T20:01:40.483Z,24.79
2018-07-22T20:04:13.724Z,24.74
2018-07-22T20:06:45.057Z,24.68
2018-07-22T20:09:15.778Z,24.63
2018-07-22T20:11:46.484Z,24.58
2018-07-22T20:14:17.244Z,24.55
2018-07-22T20:16:47.905Z,24.52
2018-07-22T20:19:18.645Z,24.50
2018-07-22T20:21:49.360Z,24.48
2018-07-22T20:24:20.152Z,24.44
2018-07-22T20:26:50.879Z,24.39
2018-07-22T20:29:22.064Z,24.34
2018-07-22T20:31:52.800Z,24.29
2018-07-22T20:34:23.475Z,24.20
2018-07-22T20:36:54.188Z,24.17
2018-07-22T20:39:24.909Z,24.14
2018-07-22T20:41:55.653Z,24.09
2018-07-22T20:44:26.414Z,24.04
2018-07-22T20:46:57.205Z,23.99
2018-07-22T20:49:28.055Z,23.99
2018-07-22T20:51:58.792Z,23.94
2018-07-22T20:54:29.559Z,23.88
2018-07-22T20:57:00.293Z,23.83
2018-07-22T20:59:31.003Z,23.80
2018-07-22T21:02:01.714Z,23.77
2018-07-22T21:04:32.502Z,23.81
2018-07-22T21:07:03.334Z,23.74
2018-07-22T21:09:34.035Z,23.69
2018-07-22T21:13:18.732Z,23.64
2018-07-22T21:15:49.929Z,23.58
2018-07-22T21:18:21.533Z,23.53
2018-07-22T21:20:52.305Z,23.48
2018-07-22T21:23:23.209Z,23.45
2018-07-22T21:25:53.955Z,23.39
2018-07-22T21:28:24.696Z,23.35
2018-07-22T21:30:55.463Z,23.33
2018-07-22T21:33:26.216Z,23.28
2018-07-22T21:35:56.949Z,23.20
2018-07-22T21:38:28.013Z,23.14
2018-07-22T21:40:58.758Z,23.12
2018-07-22T21:43:29.497Z,23.08
2018-07-22T21:46:00.237Z,23.04
2018-07-22T21:48:30.937Z,22.99
2018-07-22T21:51:01.658Z,22.94
2018-07-22T21:53:32.380Z,22.91
2018-07-22T21:56:03.116Z,22.90
2018-07-22T21:58:33.806Z,22.84
2018-07-22T22:01:04.587Z,22.79
2018-07-22T22:03:35.262Z,22.77
2018-07-22T22:06:06.060Z,22.72
2018-07-22T22:08:36.749Z,22.71
2018-07-22T22:11:07.479Z,22.65
2018-07-22T22:13:38.224Z,22.60
2018-07-22T22:16:08.956Z,22.56
2018-07-22T22:18:39.588Z,22.56
2018-07-22T22:21:10.366Z,22.50
2018-07-22T22:23:41.069Z,22.46
2018-07-22T22:26:11.793Z,22.42
2018-07-22T22:28:42.479Z,22.40
2018-07-22T22:31:13.161Z,22.35
2018-07-22T22:33:43.879Z,22.32
2018-07-22T22:36:14.660Z,22.27
2018-07-22T22:38:45.402Z,22.25
2018-07-22T22:41:16.136Z,22.23
2018-07-22T22:43:46.930Z,22.19
2018-07-22T22:46:17.693Z,22.15
2018-07-22T22:48:48.415Z,22.11
2018-07-22T22:51:19.213Z,22.06
2018-07-22T22:53:50.041Z,22.02
2018-07-22T22:56:20.829Z,21.99
2018-07-22T22:59:08.129Z,21.97
2018-07-22T23:01:38.955Z,21.94
2018-07-22T23:04:09.705Z,21.91
2018-07-22T23:06:40.398Z,21.88
2018-07-22T23:09:12.773Z,21.85
2018-07-22T23:11:44.344Z,21.82
2018-07-22T23:14:15.078Z,21.77
2018-07-22T23:16:45.776Z,21.70
2018-07-22T23:19:16.569Z,21.66
2018-07-22T23:21:47.337Z,21.64
2018-07-22T23:24:18.188Z,21.61
2018-07-22T23:26:48.869Z,21.56
2018-07-22T23:29:19.582Z,21.52
2018-07-22T23:31:50.257Z,21.47
2018-07-22T23:34:21.911Z,21.44
2018-07-22T23:36:52.791Z,21.38
2018-07-22T23:39:23.582Z,21.32
2018-07-22T23:41:54.286Z,21.26
2018-07-22T23:44:25.026Z,21.20
2018-07-22T23:46:55.715Z,21.14
2018-07-22T23:49:26.496Z,21.05
2018-07-22T23:51:57.220Z,20.99
2018-07-22T23:54:27.910Z,20.94
2018-07-22T23:56:58.660Z,20.88
2018-07-22T23:59:29.409Z,20.82
